Mahackala, Russia
Current Conditions -  °F | °C
As of 6:00 AM on Sunday 21 Dec 2014 (Local Time) from URML Reporting Station
Haze Haze  
Wind Chill: 38°   Ceiling: 1000
Heat Index: 41°   Visibility: 2mi
Dew Point: 39°   Wind: 4mph
Humidity: 93%   Direction: 280°W
Pressure: 30.06"   Gusts: NA
Location:  42.97°N, 47.49°E
Report Text: URML 210300Z 28002MPS 3200 BR OVC010 05/04 Q1018 NOSIG RMK MTOBSC QFE763/1018 SC070
Loading
Personal Weather Stations






























Interactive Weather Map New forecast layout! Learn more

10-Day Weather Forecast

Advertisements
Track Severe Weather on mobile